createdAt,value
2023-04-10T00:00:07.562Z,68.05
2023-04-10T00:01:07.557Z,68.63
2023-04-10T00:02:07.601Z,65.85
2023-04-10T00:03:07.870Z,65.56
2023-04-10T00:04:07.637Z,66.56
2023-04-10T00:05:07.688Z,65.22
2023-04-10T00:06:07.620Z,67.02
2023-04-10T00:07:07.565Z,69.17
2023-04-10T00:08:07.576Z,67.58
2023-04-10T00:09:07.564Z,65.30
2023-04-10T00:10:07.563Z,68.42
2023-04-10T00:11:07.561Z,69.50
2023-04-10T00:12:07.555Z,68.36
2023-04-10T00:13:07.564Z,65.70
2023-04-10T00:14:07.559Z,68.23
2023-04-10T00:15:07.555Z,68.70
2023-04-10T00:16:07.613Z,65.76
2023-04-10T00:17:07.548Z,67.35
2023-04-10T00:18:07.581Z,66.27
2023-04-10T00:19:07.551Z,68.20
2023-04-10T00:20:07.559Z,68.35
2023-04-10T00:21:07.551Z,67.23
2023-04-10T00:22:07.554Z,68.86
2023-04-10T00:23:07.554Z,67.85
2023-04-10T00:24:07.540Z,67.03
2023-04-10T00:25:07.528Z,64.69
2023-04-10T00:26:07.528Z,68.59
2023-04-10T00:27:07.529Z,65.09
2023-04-10T00:28:07.536Z,65.79
2023-04-10T00:29:07.535Z,66.28
2023-04-10T00:30:07.539Z,64.21
2023-04-10T00:31:07.544Z,65.88
2023-04-10T00:32:07.582Z,68.51
2023-04-10T00:33:07.553Z,67.16
2023-04-10T00:34:07.533Z,68.67
2023-04-10T00:35:07.527Z,65.76
2023-04-10T00:36:07.560Z,66.66
2023-04-10T00:37:07.532Z,66.95
2023-04-10T00:38:07.523Z,64.90
2023-04-10T00:39:07.526Z,66.39
2023-04-10T00:40:07.533Z,65.52
2023-04-10T00:41:07.536Z,68.01
2023-04-10T00:42:07.543Z,66.64
2023-04-10T00:43:07.522Z,65.25
2023-04-10T00:44:07.530Z,64.09
2023-04-10T00:45:07.541Z,62.49
2023-04-10T00:46:07.527Z,68.83
2023-04-10T00:47:07.533Z,67.10
2023-04-10T00:48:07.532Z,64.74
2023-04-10T00:49:07.522Z,64.26
2023-04-10T00:50:07.528Z,64.85
2023-04-10T00:51:07.522Z,64.27
2023-04-10T00:52:07.523Z,65.93
2023-04-10T00:53:07.525Z,67.32
2023-04-10T00:54:07.533Z,65.10
2023-04-10T00:55:07.534Z,67.19
2023-04-10T00:56:07.554Z,65.73
2023-04-10T00:57:07.586Z,66.70
2023-04-10T00:58:07.558Z,65.30
2023-04-10T00:59:07.616Z,65.73
2023-04-10T01:00:07.540Z,67.28
2023-04-10T01:01:07.612Z,64.78
2023-04-10T01:02:07.576Z,66.51
2023-04-10T01:03:07.709Z,66.12
2023-04-10T01:04:07.686Z,65.82
2023-04-10T01:05:07.555Z,67.57
2023-04-10T01:06:07.553Z,68.03
2023-04-10T01:07:07.563Z,62.91
2023-04-10T01:08:07.569Z,64.82
2023-04-10T01:09:07.585Z,65.34
2023-04-10T01:10:07.608Z,65.80
2023-04-10T01:11:07.589Z,67.30
2023-04-10T01:12:07.592Z,64.09
2023-04-10T01:13:07.608Z,62.31
2023-04-10T01:14:07.609Z,64.77
2023-04-10T01:15:07.598Z,66.95
2023-04-10T01:16:07.606Z,64.68
2023-04-10T01:17:07.666Z,67.54
2023-04-10T01:18:07.672Z,65.47
2023-04-10T01:19:07.623Z,65.76
2023-04-10T01:20:07.630Z,64.83
2023-04-10T01:21:07.636Z,66.08
2023-04-10T01:22:07.636Z,66.11
2023-04-10T01:23:07.643Z,66.81
2023-04-10T01:24:07.664Z,65.30
2023-04-10T01:25:07.726Z,66.98
2023-04-10T01:26:07.682Z,64.32
2023-04-10T01:27:07.695Z,66.70
2023-04-10T01:28:07.674Z,62.76
2023-04-10T01:29:07.673Z,63.58
2023-04-10T01:30:07.684Z,62.42
2023-04-10T01:31:07.791Z,63.94
2023-04-10T01:32:07.681Z,65.62
2023-04-10T01:33:07.679Z,62.56
2023-04-10T01:34:07.746Z,63.55
2023-04-10T01:35:07.812Z,66.77
2023-04-10T01:36:07.795Z,61.70
2023-04-10T01:37:07.680Z,63.33
2023-04-10T01:38:07.684Z,64.12
2023-04-10T01:39:07.679Z,65.81
2023-04-10T01:40:07.681Z,62.47
2023-04-10T01:41:07.684Z,64.87
2023-04-10T01:42:07.713Z,63.91
2023-04-10T01:43:07.752Z,63.46
2023-04-10T01:44:07.709Z,62.82
2023-04-10T01:45:07.709Z,62.64
2023-04-10T01:46:07.790Z,63.31
2023-04-10T01:47:07.723Z,65.71
2023-04-10T01:48:07.774Z,62.91
2023-04-10T01:49:07.753Z,65.53
2023-04-10T01:50:07.736Z,62.90
2023-04-10T01:51:07.740Z,67.10
2023-04-10T01:52:07.744Z,63.96
2023-04-10T01:53:07.755Z,63.40
2023-04-10T01:54:07.754Z,62.76
2023-04-10T01:55:07.766Z,65.73
2023-04-10T01:56:07.794Z,63.22
2023-04-10T01:57:07.771Z,60.88
2023-04-10T01:58:07.774Z,63.89
2023-04-10T01:59:07.790Z,61.70
2023-04-10T02:00:07.855Z,61.07
2023-04-10T02:01:08.101Z,63.52
2023-04-10T02:02:07.934Z,62.84
2023-04-10T02:03:08.051Z,61.06
2023-04-10T02:04:07.872Z,62.07
2023-04-10T02:05:07.875Z,62.18
2023-04-10T02:06:07.819Z,64.56
2023-04-10T02:07:07.816Z,61.34
2023-04-10T02:08:07.821Z,62.02
2023-04-10T02:09:07.831Z,64.99
2023-04-10T02:10:07.835Z,62.25
2023-04-10T02:11:07.828Z,63.02
2023-04-10T02:12:07.830Z,64.48
2023-04-10T02:13:07.849Z,64.36
2023-04-10T02:14:07.839Z,62.53
2023-04-10T02:15:07.832Z,62.19
2023-04-10T02:16:07.866Z,63.56
2023-04-10T02:17:07.849Z,60.49
2023-04-10T02:18:07.855Z,62.66
2023-04-10T02:19:07.875Z,60.27
2023-04-10T02:20:07.864Z,64.62
2023-04-10T02:21:07.871Z,62.17
2023-04-10T02:22:07.858Z,60.62
2023-04-10T02:23:07.870Z,59.79
2023-04-10T02:24:07.879Z,61.40
2023-04-10T02:25:07.909Z,63.00
2023-04-10T02:26:07.902Z,60.21
2023-04-10T02:27:07.903Z,63.37
2023-04-10T02:28:07.982Z,61.72
2023-04-10T02:29:07.898Z,63.75
2023-04-10T02:30:07.928Z,63.22
2023-04-10T02:31:08.046Z,62.92
2023-04-10T02:32:07.919Z,61.13
2023-04-10T02:33:07.913Z,61.25
2023-04-10T02:34:07.919Z,59.98
2023-04-10T02:35:07.928Z,63.25
2023-04-10T02:36:07.957Z,61.71
2023-04-10T02:37:07.929Z,59.02
2023-04-10T02:38:07.948Z,57.21
2023-04-10T02:39:07.945Z,60.61
2023-04-10T02:40:07.952Z,65.48
2023-04-10T02:41:07.959Z,60.90
2023-04-10T02:42:07.966Z,60.84
2023-04-10T02:43:07.973Z,61.46
2023-04-10T02:44:07.975Z,63.12
2023-04-10T02:45:07.981Z,58.43
2023-04-10T02:46:07.994Z,58.07
2023-04-10T02:47:08.234Z,61.18
2023-04-10T02:48:08.007Z,61.26
2023-04-10T02:49:08.009Z,60.55
2023-04-10T02:50:08.013Z,59.22
2023-04-10T02:51:08.026Z,63.68
2023-04-10T02:52:08.023Z,61.38
2023-04-10T02:53:08.026Z,63.38
2023-04-10T02:54:08.025Z,61.90
2023-04-10T02:55:08.025Z,59.89
2023-04-10T02:56:08.070Z,63.92
2023-04-10T02:57:08.031Z,58.37
2023-04-10T02:58:08.023Z,58.79
2023-04-10T02:59:08.025Z,59.02
2023-04-10T03:00:08.038Z,62.24
2023-04-10T03:01:08.027Z,61.08
2023-04-10T03:02:08.126Z,59.26
2023-04-10T03:03:08.157Z,62.20
2023-04-10T03:04:08.224Z,60.62
2023-04-10T03:05:08.050Z,62.83
2023-04-10T03:06:08.278Z,62.12
2023-04-10T03:07:08.063Z,60.62
2023-04-10T03:08:08.070Z,58.32
2023-04-10T03:09:08.068Z,63.06
2023-04-10T03:10:08.084Z,59.24
2023-04-10T03:11:08.105Z,58.87
2023-04-10T03:12:08.109Z,60.59
2023-04-10T03:13:08.111Z,60.49
2023-04-10T03:14:08.113Z,56.01
2023-04-10T03:15:08.151Z,58.64
2023-04-10T03:16:08.150Z,58.24
2023-04-10T03:17:08.150Z,62.51
2023-04-10T03:18:08.167Z,57.13
2023-04-10T03:19:08.147Z,63.27
2023-04-10T03:20:08.155Z,59.06
2023-04-10T03:21:08.168Z,61.58
2023-04-10T03:22:08.170Z,57.06
2023-04-10T03:23:08.182Z,59.52
2023-04-10T03:24:08.194Z,60.15
2023-04-10T03:25:08.243Z,59.02
2023-04-10T03:26:08.225Z,57.42
2023-04-10T03:27:08.243Z,60.15
2023-04-10T03:28:08.227Z,61.11
2023-04-10T03:29:08.232Z,57.01
2023-04-10T03:30:08.253Z,57.98
2023-04-10T03:31:08.270Z,58.28
2023-04-10T03:32:08.255Z,59.61
2023-04-10T03:33:08.260Z,61.07
2023-04-10T03:34:08.270Z,60.33
2023-04-10T03:35:08.279Z,57.40
2023-04-10T03:36:08.302Z,61.55
2023-04-10T03:37:08.300Z,59.05
2023-04-10T03:38:08.301Z,57.80
2023-04-10T03:39:08.300Z,59.18
2023-04-10T03:40:08.308Z,59.45
2023-04-10T03:41:08.321Z,55.16
2023-04-10T03:42:08.344Z,60.92
2023-04-10T03:43:08.334Z,61.05
2023-04-10T03:44:08.338Z,58.40
2023-04-10T03:45:08.343Z,57.58
2023-04-10T03:46:08.366Z,60.74
2023-04-10T03:47:08.411Z,59.00
2023-04-10T03:48:08.426Z,59.37
2023-04-10T03:49:08.373Z,55.25
2023-04-10T03:50:08.386Z,56.84
2023-04-10T03:51:08.373Z,57.28
2023-04-10T03:52:08.384Z,56.18
2023-04-10T03:53:08.398Z,59.15
2023-04-10T03:54:08.414Z,59.49
2023-04-10T03:55:08.418Z,55.27
2023-04-10T03:56:08.431Z,58.23
2023-04-10T03:57:08.432Z,57.38
2023-04-10T03:58:08.456Z,61.65
2023-04-10T03:59:08.457Z,59.34
2023-04-10T04:00:08.472Z,59.17
2023-04-10T04:01:08.498Z,58.67
2023-04-10T04:02:08.564Z,57.66
2023-04-10T04:03:08.889Z,58.10
2023-04-10T04:04:08.630Z,59.35
2023-04-10T04:05:08.603Z,57.26
2023-04-10T04:06:08.533Z,58.89
2023-04-10T04:07:08.549Z,56.40
2023-04-10T04:08:08.554Z,53.77
2023-04-10T04:09:08.568Z,55.66
2023-04-10T04:10:08.576Z,56.57
2023-04-10T04:11:08.580Z,57.91
2023-04-10T04:12:08.589Z,57.51
2023-04-10T04:13:08.597Z,58.02
2023-04-10T04:14:08.603Z,55.19
2023-04-10T04:15:08.610Z,54.99
2023-04-10T04:16:08.647Z,58.36
2023-04-10T04:17:08.631Z,56.61
2023-04-10T04:18:08.630Z,55.25
2023-04-10T04:19:08.641Z,58.70
2023-04-10T04:20:08.641Z,55.17
2023-04-10T04:21:08.676Z,55.61
2023-04-10T04:22:08.653Z,53.56
2023-04-10T04:23:08.671Z,57.10
2023-04-10T04:24:08.673Z,56.74
2023-04-10T04:25:08.681Z,58.46
2023-04-10T04:26:08.693Z,56.99
2023-04-10T04:27:08.702Z,54.17
2023-04-10T04:28:08.725Z,55.16
2023-04-10T04:29:08.723Z,56.17
2023-04-10T04:30:08.723Z,56.49
2023-04-10T04:31:08.735Z,58.05
2023-04-10T04:32:08.823Z,55.88
2023-04-10T04:33:08.788Z,54.51
2023-04-10T04:34:08.742Z,53.40
2023-04-10T04:35:08.747Z,57.07
2023-04-10T04:36:08.796Z,54.52
2023-04-10T04:37:08.770Z,55.47
2023-04-10T04:38:08.750Z,54.48
2023-04-10T04:39:08.764Z,55.96
2023-04-10T04:40:08.763Z,54.69
2023-04-10T04:41:08.802Z,56.84
2023-04-10T04:42:08.778Z,54.14
2023-04-10T04:43:08.781Z,56.31
2023-04-10T04:44:08.780Z,55.47
2023-04-10T04:45:08.780Z,57.28
2023-04-10T04:46:08.785Z,52.14
2023-04-10T04:47:08.790Z,55.21
2023-04-10T04:48:08.773Z,56.26
2023-04-10T04:49:08.779Z,58.18
2023-04-10T04:50:08.789Z,54.69
2023-04-10T04:51:08.780Z,54.99
2023-04-10T04:52:08.789Z,53.91
2023-04-10T04:53:08.782Z,54.00
2023-04-10T04:54:08.785Z,56.39
2023-04-10T04:55:08.776Z,55.16
2023-04-10T04:56:08.791Z,55.97
2023-04-10T04:57:08.797Z,55.13
2023-04-10T04:58:08.792Z,52.04
2023-04-10T04:59:08.795Z,55.21
2023-04-10T05:00:08.813Z,56.01
2023-04-10T05:01:08.870Z,54.29
2023-04-10T05:02:08.850Z,57.02
2023-04-10T05:03:08.909Z,55.27
2023-04-10T05:04:08.976Z,51.99
2023-04-10T05:05:08.808Z,52.55
2023-04-10T05:06:08.805Z,55.16
2023-04-10T05:07:08.818Z,55.76
2023-04-10T05:08:08.816Z,56.44
2023-04-10T05:09:08.820Z,54.28
2023-04-10T05:10:08.842Z,53.12
2023-04-10T05:11:08.836Z,54.54
2023-04-10T05:12:08.830Z,58.00
2023-04-10T05:13:08.832Z,55.98
2023-04-10T05:14:08.838Z,53.48
2023-04-10T05:15:08.851Z,53.80
2023-04-10T05:16:08.877Z,55.35
2023-04-10T05:17:08.859Z,52.56
2023-04-10T05:18:08.952Z,52.18
2023-04-10T05:19:08.864Z,51.03
2023-04-10T05:20:08.879Z,52.49
2023-04-10T05:21:08.878Z,53.18
2023-04-10T05:22:08.880Z,49.22
2023-04-10T05:23:08.908Z,50.63
2023-04-10T05:24:08.897Z,52.13
2023-04-10T05:25:08.909Z,52.16
2023-04-10T05:26:08.904Z,54.53
2023-04-10T05:27:08.913Z,53.43
2023-04-10T05:28:08.941Z,53.68
2023-04-10T05:29:08.949Z,51.53
2023-04-10T05:30:08.933Z,51.01
2023-04-10T05:31:08.989Z,51.51
2023-04-10T05:32:08.942Z,47.34
2023-04-10T05:33:08.949Z,54.17
2023-04-10T05:34:08.949Z,50.34
2023-04-10T05:35:08.953Z,50.75
2023-04-10T05:36:08.955Z,54.23
2023-04-10T05:37:08.969Z,52.03
2023-04-10T05:38:08.954Z,53.95
2023-04-10T05:39:08.957Z,49.27
2023-04-10T05:40:08.972Z,53.16
2023-04-10T05:41:08.977Z,54.61
2023-04-10T05:42:08.970Z,51.21
2023-04-10T05:43:08.973Z,53.55
2023-04-10T05:44:08.985Z,50.98
2023-04-10T05:45:08.982Z,51.67
2023-04-10T05:46:09.015Z,49.31
2023-04-10T05:47:08.991Z,50.86
2023-04-10T05:48:09.007Z,48.13
2023-04-10T05:49:09.008Z,53.06
2023-04-10T05:50:09.028Z,49.53
2023-04-10T05:51:09.006Z,52.31
2023-04-10T05:52:09.043Z,50.16
2023-04-10T05:53:09.012Z,50.87
2023-04-10T05:54:09.005Z,54.03
2023-04-10T05:55:09.007Z,50.86
2023-04-10T05:56:09.016Z,50.06
2023-04-10T05:57:09.014Z,51.10
2023-04-10T05:58:09.021Z,54.10
2023-04-10T05:59:09.006Z,48.91
2023-04-10T06:00:09.010Z,48.34
2023-04-10T06:01:09.029Z,51.64
2023-04-10T06:02:09.085Z,53.93
2023-04-10T06:03:09.064Z,49.63
2023-04-10T06:04:09.237Z,51.38
2023-04-10T06:05:09.058Z,50.68
2023-04-10T06:06:09.039Z,48.25
2023-04-10T06:07:09.038Z,45.74
2023-04-10T06:08:09.041Z,50.46
2023-04-10T06:09:09.055Z,49.21
2023-04-10T06:10:09.075Z,48.11
2023-04-10T06:11:09.061Z,50.49
2023-04-10T06:12:09.059Z,50.10
2023-04-10T06:13:11.107Z,49.77
2023-04-10T06:14:09.060Z,48.62
2023-04-10T06:15:09.059Z,49.53
2023-04-10T06:16:09.110Z,50.24
2023-04-10T06:17:09.130Z,51.87
2023-04-10T06:18:09.065Z,48.98
2023-04-10T06:19:09.065Z,47.78
2023-04-10T06:20:09.062Z,45.87
2023-04-10T06:21:09.061Z,44.51
2023-04-10T06:22:09.064Z,49.15
2023-04-10T06:23:09.059Z,45.83
2023-04-10T06:24:09.700Z,51.92
2023-04-10T06:25:09.055Z,47.71
2023-04-10T06:26:09.050Z,49.97
2023-04-10T06:27:09.065Z,46.13
2023-04-10T06:28:09.382Z,46.09
2023-04-10T06:29:09.059Z,47.74
2023-04-10T06:30:09.062Z,48.65
2023-04-10T06:31:09.071Z,48.02
2023-04-10T06:32:09.057Z,45.43
2023-04-10T06:33:09.061Z,45.20
2023-04-10T06:34:09.044Z,45.30
2023-04-10T06:35:09.047Z,43.43
2023-04-10T06:36:09.068Z,44.73
2023-04-10T06:37:09.047Z,45.73
2023-04-10T06:38:09.030Z,45.90
2023-04-10T06:39:09.020Z,45.08
2023-04-10T06:40:09.012Z,44.77
2023-04-10T06:41:09.040Z,43.33
2023-04-10T06:42:09.002Z,44.01
2023-04-10T06:43:08.982Z,41.93
2023-04-10T06:44:08.975Z,41.41
2023-04-10T06:45:08.956Z,42.40
2023-04-10T06:46:08.950Z,42.40
2023-04-10T06:47:08.953Z,43.66
2023-04-10T06:48:08.917Z,44.60
2023-04-10T06:49:08.918Z,42.14
2023-04-10T06:50:08.880Z,42.93
2023-04-10T06:51:08.876Z,41.99
2023-04-10T06:52:08.858Z,44.84
2023-04-10T06:53:08.858Z,42.29
2023-04-10T06:54:08.840Z,43.22
2023-04-10T06:55:08.809Z,41.73
2023-04-10T06:56:08.777Z,40.96
2023-04-10T06:57:08.756Z,46.30
2023-04-10T06:58:08.729Z,40.97
2023-04-10T06:59:08.710Z,41.75
2023-04-10T07:00:08.677Z,42.58
2023-04-10T07:01:08.718Z,40.03
2023-04-10T07:02:08.694Z,42.18
2023-04-10T07:03:08.647Z,41.98
2023-04-10T07:04:08.764Z,40.07
2023-04-10T07:05:08.554Z,40.43
2023-04-10T07:06:08.531Z,46.42
2023-04-10T07:07:08.515Z,41.15
2023-04-10T07:08:08.478Z,41.88
2023-04-10T07:09:08.453Z,43.26
2023-04-10T07:10:08.440Z,41.45
2023-04-10T07:11:08.396Z,43.91
2023-04-10T07:12:08.376Z,39.30
2023-04-10T07:13:08.333Z,41.82
2023-04-10T07:14:08.298Z,43.16
2023-04-10T07:15:08.284Z,38.53
2023-04-10T07:16:08.298Z,42.01
2023-04-10T07:17:08.206Z,39.83
2023-04-10T07:18:08.200Z,41.00
2023-04-10T07:19:08.149Z,41.33
2023-04-10T07:20:08.144Z,41.49
2023-04-10T07:21:08.160Z,38.86
2023-04-10T07:22:08.160Z,40.77
2023-04-10T07:23:08.150Z,37.06
2023-04-10T07:24:08.156Z,40.85
2023-04-10T07:25:08.163Z,42.12
2023-04-10T07:26:08.153Z,38.67
2023-04-10T07:27:08.164Z,38.23
2023-04-10T07:28:08.167Z,40.89
2023-04-10T07:29:08.161Z,40.06
2023-04-10T07:30:08.192Z,44.27
2023-04-10T07:31:08.200Z,38.67
2023-04-10T07:32:08.296Z,42.70
2023-04-10T07:33:08.394Z,42.13
2023-04-10T07:34:08.282Z,41.98
2023-04-10T07:35:08.310Z,40.00
2023-04-10T07:36:08.397Z,43.17
2023-04-10T07:37:08.337Z,43.88
2023-04-10T07:38:08.345Z,39.09
2023-04-10T07:39:08.343Z,40.32
2023-04-10T07:40:08.366Z,43.59
2023-04-10T07:41:08.362Z,41.58
2023-04-10T07:42:08.380Z,42.88
2023-04-10T07:43:08.422Z,42.58
2023-04-10T07:44:08.469Z,43.48
2023-04-10T07:45:08.484Z,43.33
2023-04-10T07:46:08.566Z,45.72
2023-04-10T07:47:08.512Z,44.24
2023-04-10T07:48:08.625Z,46.30
2023-04-10T07:49:09.021Z,42.51
2023-04-10T07:50:08.599Z,46.31
2023-04-10T07:51:09.536Z,45.28
2023-04-10T07:52:08.553Z,42.71
2023-04-10T07:53:08.601Z,41.31
2023-04-10T07:54:08.622Z,45.60
2023-04-10T07:55:08.650Z,46.70
2023-04-10T07:56:08.678Z,47.08
2023-04-10T07:57:08.700Z,43.56
2023-04-10T07:58:08.730Z,46.05
2023-04-10T07:59:08.757Z,44.51
2023-04-10T08:00:08.791Z,48.60
2023-04-10T08:01:08.817Z,44.93
2023-04-10T08:02:08.991Z,43.59
2023-04-10T08:03:09.129Z,43.67
2023-04-10T08:04:09.043Z,47.65
2023-04-10T08:05:08.972Z,44.73
2023-04-10T08:06:08.945Z,44.56
2023-04-10T08:07:08.971Z,45.77
2023-04-10T08:08:09.840Z,46.69
2023-04-10T08:09:09.007Z,44.45
2023-04-10T08:10:09.035Z,46.66
2023-04-10T08:11:09.063Z,42.75
2023-04-10T08:12:09.084Z,40.36
2023-04-10T08:13:09.101Z,42.68
2023-04-10T08:14:09.126Z,47.08
2023-04-10T08:15:09.143Z,44.62
2023-04-10T08:16:09.161Z,46.07
2023-04-10T08:17:09.298Z,45.53
2023-04-10T08:18:09.218Z,46.61
2023-04-10T08:19:09.225Z,46.07
2023-04-10T08:20:09.256Z,46.58
2023-04-10T08:21:09.275Z,46.61
2023-04-10T08:22:09.298Z,48.65
2023-04-10T08:24:09.275Z,46.71
2023-04-10T08:25:09.229Z,47.07
2023-04-10T08:26:09.193Z,48.31
2023-04-10T08:27:09.172Z,47.34
2023-04-10T08:28:09.121Z,45.99
2023-04-10T08:29:09.072Z,49.00
2023-04-10T08:30:09.039Z,50.98
2023-04-10T08:31:09.116Z,49.34
2023-04-10T08:32:08.952Z,46.79
2023-04-10T08:33:08.917Z,50.18
2023-04-10T08:34:08.867Z,48.88
2023-04-10T08:35:08.836Z,50.44
2023-04-10T08:36:08.815Z,48.89
2023-04-10T08:37:10.395Z,50.57
2023-04-10T08:38:13.937Z,50.68
2023-04-10T08:39:09.671Z,50.85
2023-04-10T08:40:08.690Z,51.64
2023-04-10T08:41:08.587Z,52.81
2023-04-10T08:42:08.547Z,48.35
2023-04-10T08:43:08.501Z,54.24
2023-04-10T08:44:08.466Z,50.95
2023-04-10T08:45:08.432Z,52.09
2023-04-10T08:46:08.412Z,50.61
2023-04-10T08:47:08.352Z,48.89
2023-04-10T08:48:08.301Z,53.52
2023-04-10T08:49:08.293Z,53.46
2023-04-10T08:50:08.324Z,52.67
2023-04-10T08:51:10.787Z,48.97
2023-04-10T08:52:09.279Z,49.11
2023-04-10T08:53:08.252Z,49.44
2023-04-10T08:54:08.234Z,49.07
2023-04-10T08:55:08.170Z,51.97
2023-04-10T08:56:08.108Z,50.91
2023-04-10T08:57:09.834Z,51.37
2023-04-10T08:58:08.007Z,52.50
2023-04-10T08:59:07.961Z,55.35
2023-04-10T09:00:20.215Z,52.34
2023-04-10T09:01:08.863Z,52.60
2023-04-10T09:02:07.868Z,52.64
2023-04-10T09:03:07.979Z,52.06
2023-04-10T09:04:07.806Z,51.19
2023-04-10T09:05:07.671Z,56.62
2023-04-10T09:06:07.625Z,55.33
2023-04-10T09:07:07.586Z,53.09
2023-04-10T09:08:07.535Z,53.19
2023-04-10T09:09:07.496Z,53.96
2023-04-10T09:10:07.449Z,51.30
2023-04-10T09:11:07.409Z,57.98
2023-04-10T09:12:07.387Z,55.04
2023-04-10T09:13:07.397Z,53.78
2023-04-10T09:14:07.394Z,57.54
2023-04-10T09:15:07.403Z,54.48
2023-04-10T09:16:07.505Z,53.00
2023-04-10T09:17:07.413Z,54.40
2023-04-10T09:18:07.471Z,53.45
2023-04-10T09:19:07.839Z,53.56
2023-04-10T09:20:07.436Z,55.64
2023-04-10T09:21:07.442Z,54.07
2023-04-10T09:22:07.456Z,55.01
2023-04-10T09:23:07.461Z,54.47
2023-04-10T09:24:07.458Z,54.83
2023-04-10T09:25:07.478Z,53.10
2023-04-10T09:26:07.486Z,52.75
2023-04-10T09:27:07.503Z,52.41
2023-04-10T09:28:07.491Z,54.22
2023-04-10T09:29:07.497Z,55.34
2023-04-10T09:30:07.517Z,54.34
2023-04-10T09:31:07.522Z,56.97
2023-04-10T09:32:07.532Z,56.22
2023-04-10T09:33:07.594Z,54.53
2023-04-10T09:34:07.550Z,57.21
2023-04-10T09:35:07.541Z,54.26
2023-04-10T09:36:07.561Z,57.25
2023-04-10T09:37:07.569Z,56.66
2023-04-10T09:38:07.567Z,57.01
2023-04-10T09:39:07.573Z,56.26
2023-04-10T09:40:07.577Z,55.67
2023-04-10T09:41:07.568Z,54.81
2023-04-10T09:42:07.597Z,57.74
2023-04-10T09:43:07.606Z,56.23
2023-04-10T09:44:07.593Z,58.43
2023-04-10T09:45:07.595Z,57.04
2023-04-10T09:46:07.642Z,58.28
2023-04-10T09:47:07.598Z,55.22
2023-04-10T09:48:07.800Z,57.46
2023-04-10T09:49:07.630Z,59.23
2023-04-10T09:50:07.606Z,56.91
2023-04-10T09:51:07.606Z,58.10
2023-04-10T09:52:07.611Z,55.26
2023-04-10T09:53:07.609Z,57.55
2023-04-10T09:54:07.612Z,57.49
2023-04-10T09:55:07.637Z,56.91
2023-04-10T09:56:07.624Z,57.60
2023-04-10T09:57:07.620Z,56.55
2023-04-10T09:58:07.609Z,55.52
2023-04-10T09:59:07.632Z,57.75
2023-04-10T10:00:07.626Z,56.54
2023-04-10T10:01:07.611Z,56.10
2023-04-10T10:02:07.744Z,57.56
2023-04-10T10:03:07.914Z,57.21
2023-04-10T10:04:07.612Z,56.20
2023-04-10T10:05:07.857Z,60.28
2023-04-10T10:06:07.599Z,58.15
2023-04-10T10:07:07.604Z,59.12
2023-04-10T10:08:07.615Z,57.05
2023-04-10T10:09:07.613Z,61.48
2023-04-10T10:10:07.621Z,58.76
2023-04-10T10:11:07.613Z,54.29
2023-04-10T10:12:07.621Z,58.22
2023-04-10T10:13:07.605Z,59.87
2023-04-10T10:14:07.612Z,59.09
2023-04-10T10:15:07.615Z,60.05
2023-04-10T10:16:07.737Z,57.60
2023-04-10T10:17:07.616Z,57.84
2023-04-10T10:18:07.666Z,57.47
2023-04-10T10:19:07.619Z,59.15
2023-04-10T10:20:07.614Z,58.72
2023-04-10T10:21:07.621Z,58.86
2023-04-10T10:22:07.622Z,62.61
2023-04-10T10:23:07.616Z,60.64
2023-04-10T10:24:07.631Z,60.02
2023-04-10T10:25:07.633Z,59.11
2023-04-10T10:26:07.629Z,60.59
2023-04-10T10:27:07.646Z,60.00
2023-04-10T10:28:07.647Z,61.00
2023-04-10T10:29:07.652Z,60.22
2023-04-10T10:30:16.411Z,60.40
2023-04-10T10:31:08.628Z,60.62
2023-04-10T10:32:07.552Z,61.17
2023-04-10T10:33:07.505Z,61.55
2023-04-10T10:34:07.526Z,62.44
2023-04-10T10:35:07.424Z,64.93
2023-04-10T10:36:07.375Z,64.61
2023-04-10T10:37:07.350Z,64.54
2023-04-10T10:38:07.323Z,62.47
2023-04-10T10:39:07.268Z,64.15
2023-04-10T10:40:07.233Z,63.98
2023-04-10T10:41:07.181Z,64.69
2023-04-10T10:42:07.143Z,63.73
2023-04-10T10:43:07.138Z,63.99
2023-04-10T10:44:07.160Z,64.82
2023-04-10T10:45:07.159Z,65.05
2023-04-10T10:46:07.203Z,65.56
2023-04-10T10:47:07.177Z,65.69
2023-04-10T10:48:07.267Z,64.79
2023-04-10T10:49:07.204Z,66.27
2023-04-10T10:50:07.207Z,64.81
2023-04-10T10:51:07.217Z,65.95
2023-04-10T10:52:07.214Z,66.36
2023-04-10T10:53:07.217Z,68.69
2023-04-10T10:54:07.216Z,66.11
2023-04-10T10:55:07.226Z,67.59
2023-04-10T10:56:07.228Z,68.33
2023-04-10T10:57:07.241Z,69.31
2023-04-10T10:58:07.252Z,67.79
2023-04-10T10:59:07.262Z,66.80
2023-04-10T11:00:07.264Z,70.62
2023-04-10T11:01:09.784Z,67.35
2023-04-10T11:02:07.268Z,68.06
2023-04-10T11:03:07.292Z,67.96
2023-04-10T11:04:07.186Z,67.21
2023-04-10T11:05:07.198Z,69.82
2023-04-10T11:06:07.039Z,69.22
2023-04-10T11:07:06.996Z,66.47
2023-04-10T11:08:06.966Z,67.42
2023-04-10T11:09:06.941Z,68.54
2023-04-10T11:10:06.877Z,67.85
2023-04-10T11:11:06.863Z,69.05
2023-04-10T11:12:06.811Z,70.89
2023-04-10T11:13:06.763Z,67.96
2023-04-10T11:14:06.746Z,68.22
2023-04-10T11:15:06.690Z,70.41
2023-04-10T11:16:06.697Z,68.10
2023-04-10T11:17:06.666Z,68.05
2023-04-10T11:18:06.585Z,68.62
2023-04-10T11:19:14.997Z,70.44
2023-04-10T11:20:07.469Z,70.63
2023-04-10T11:21:06.426Z,71.27
2023-04-10T11:22:06.395Z,71.20
2023-04-10T11:23:06.353Z,71.05
2023-04-10T11:24:06.295Z,72.21
2023-04-10T11:25:06.241Z,71.37
2023-04-10T11:26:06.204Z,68.67
2023-04-10T11:27:06.169Z,69.30
2023-04-10T11:28:06.122Z,68.73
2023-04-10T11:29:06.110Z,70.60
2023-04-10T11:30:06.046Z,68.68
2023-04-10T11:31:06.052Z,72.08
2023-04-10T11:32:06.172Z,66.65
2023-04-10T11:33:06.147Z,67.82
2023-04-10T11:34:06.086Z,68.04
2023-04-10T11:35:06.116Z,68.31
2023-04-10T11:36:06.153Z,70.28
2023-04-10T11:37:06.126Z,68.86
2023-04-10T11:38:06.135Z,66.46
2023-04-10T11:39:06.147Z,69.45
2023-04-10T11:40:06.168Z,67.53
2023-04-10T11:41:06.176Z,68.61
2023-04-10T11:42:06.192Z,66.18
2023-04-10T11:43:06.208Z,68.04
2023-04-10T11:44:06.259Z,67.25
2023-04-10T11:45:06.245Z,70.86
2023-04-10T11:46:06.426Z,68.83
2023-04-10T11:47:06.283Z,69.31
2023-04-10T11:48:06.358Z,70.77
2023-04-10T11:49:06.320Z,67.43
2023-04-10T11:50:06.340Z,66.89
2023-04-10T11:51:06.354Z,70.53
2023-04-10T11:52:06.363Z,68.92
2023-04-10T11:53:06.384Z,70.30
2023-04-10T11:54:06.394Z,69.83
2023-04-10T11:55:06.423Z,69.20
2023-04-10T11:56:06.438Z,68.11
2023-04-10T11:57:06.500Z,66.63
2023-04-10T11:58:06.486Z,66.94
2023-04-10T11:59:06.515Z,69.12
2023-04-10T12:00:06.536Z,69.17
2023-04-10T12:01:06.553Z,66.34
2023-04-10T12:02:06.658Z,68.41
2023-04-10T12:03:06.764Z,68.34
2023-04-10T12:04:06.760Z,68.58
2023-04-10T12:05:06.719Z,68.08
2023-04-10T12:06:06.655Z,67.26
2023-04-10T12:07:06.677Z,68.84
2023-04-10T12:08:06.702Z,71.55
2023-04-10T12:09:06.729Z,68.11
2023-04-10T12:10:06.749Z,67.57
2023-04-10T12:11:06.769Z,67.46
2023-04-10T12:12:06.913Z,68.33
2023-04-10T12:13:07.666Z,68.52
2023-04-10T12:14:06.837Z,65.88
2023-04-10T12:15:06.862Z,65.70
2023-04-10T12:16:06.953Z,67.45
2023-04-10T12:17:06.899Z,67.38
2023-04-10T12:18:06.900Z,69.18
2023-04-10T12:19:06.924Z,66.51
2023-04-10T12:20:07.113Z,65.11
2023-04-10T12:21:08.641Z,70.52
2023-04-10T12:22:07.020Z,68.94
2023-04-10T12:23:07.039Z,67.77
2023-04-10T12:24:07.064Z,68.07
2023-04-10T12:25:07.080Z,67.08
2023-04-10T12:26:07.103Z,70.20
2023-04-10T12:27:07.131Z,66.86
2023-04-10T12:28:07.158Z,66.18
2023-04-10T12:29:07.187Z,65.06
2023-04-10T12:30:07.219Z,66.14
2023-04-10T12:31:07.304Z,65.12
2023-04-10T12:32:07.264Z,67.93
2023-04-10T12:33:07.334Z,64.32
2023-04-10T12:34:09.867Z,67.77
2023-04-10T12:35:07.261Z,65.60
2023-04-10T12:36:07.212Z,62.88
2023-04-10T12:37:07.173Z,69.01
2023-04-10T12:38:07.141Z,66.82
2023-04-10T12:39:07.093Z,63.51
2023-04-10T12:40:07.069Z,68.88
2023-04-10T12:41:07.034Z,64.48
2023-04-10T12:42:06.989Z,65.61
2023-04-10T12:43:06.950Z,70.07
2023-04-10T12:44:06.922Z,61.86
2023-04-10T12:45:06.908Z,68.21
2023-04-10T12:46:06.872Z,66.81
2023-04-10T12:47:06.824Z,65.53
2023-04-10T12:48:06.838Z,63.84
2023-04-10T12:49:06.750Z,66.17
2023-04-10T12:50:06.723Z,67.21
2023-04-10T12:51:06.672Z,66.08
2023-04-10T12:52:06.641Z,68.32
2023-04-10T12:53:06.606Z,68.43